Time;durP1;ratioP1;P1;durP2;ratioP2;P2;SDS_P1;SDS_P2;PMS_P1;PMS_P2;Temp;Humidity;BMP_temperature;BMP_pressure;BME280_temperature;BME280_humidity;BME280_pressure;Samples;Min_cycle;Max_cycle;Signal;HPM_P1;HPM_P2
2023/01/28 00:01:41;;;;;;;4.05;2.17;;;3.90;99.90;;;;;;5006291;28;20487;-74
2023/01/28 00:04:07;;;;;;;5.28;2.35;;;3.90;99.90;;;;;;5006752;28;20038;-74
2023/01/28 00:06:32;;;;;;;4.22;2.25;;;3.90;99.90;;;;;;5006072;28;20572;-75
2023/01/28 00:08:58;;;;;;;5.75;2.80;;;3.80;99.90;;;;;;5007769;28;20038;-74
2023/01/28 00:11:25;;;;;;;4.50;2.05;;;3.90;99.90;;;;;;5007621;28;20065;-74
2023/01/28 00:13:52;;;;;;;4.22;2.20;;;3.80;99.90;;;;;;5022282;28;20038;-74
2023/01/28 00:16:18;;;;;;;4.20;2.30;;;3.80;99.90;;;;;;5007789;28;20104;-74
2023/01/28 00:18:44;;;;;;;4.97;2.63;;;3.80;99.90;;;;;;5008230;28;20057;-75
2023/01/28 00:21:13;;;;;;;4.70;2.20;;;3.80;99.90;;;;;;5012106;28;20026;-75
2023/01/28 00:23:40;;;;;;;3.95;2.28;;;3.90;99.90;;;;;;5009018;28;20108;-73
2023/01/28 00:26:15;;;;;;;4.68;2.50;;;3.90;99.90;;;;;;5011836;28;20097;-74
2023/01/28 00:28:41;;;;;;;4.68;2.22;;;3.90;99.90;;;;;;5009647;28;20101;-73
2023/01/28 00:31:19;;;;;;;4.55;2.58;;;3.90;99.90;;;;;;5011949;28;20065;-74
2023/01/28 00:33:46;;;;;;;4.75;2.20;;;3.80;99.90;;;;;;5009284;28;20121;-73
2023/01/28 00:36:13;;;;;;;5.03;2.60;;;3.80;99.90;;;;;;5010846;28;20048;-73
2023/01/28 00:38:38;;;;;;;5.60;2.85;;;3.80;99.90;;;;;;5027585;28;21574;-73
2023/01/28 00:41:12;;;;;;;4.10;2.25;;;3.80;99.90;;;;;;5012120;28;20140;-75
2023/01/28 00:43:38;;;;;;;5.60;2.63;;;3.90;99.90;;;;;;5010469;28;20085;-73
2023/01/28 00:46:06;;;;;;;4.97;2.40;;;3.80;99.90;;;;;;5010401;28;20038;-73
2023/01/28 00:48:32;;;;;;;5.40;2.72;;;3.80;99.90;;;;;;5011587;28;20037;-73
2023/01/28 00:50:58;;;;;;;4.68;2.42;;;3.80;99.90;;;;;;5009512;28;20034;-74
2023/01/28 00:53:24;;;;;;;4.13;1.92;;;3.80;99.90;;;;;;5011204;28;20080;-73
2023/01/28 00:55:51;;;;;;;5.13;2.72;;;3.80;99.90;;;;;;5009354;28;20069;-73
2023/01/28 00:58:17;;;;;;;5.22;2.92;;;3.80;99.90;;;;;;5011571;28;20030;-74
2023/01/28 01:00:43;;;;;;;5.05;2.45;;;3.80;99.90;;;;;;5010665;28;20101;-73
2023/01/28 01:03:09;;;;;;;4.68;2.50;;;3.80;99.90;;;;;;5011009;28;20086;-74
2023/01/28 01:05:35;;;;;;;4.88;2.30;;;3.80;99.90;;;;;;5008565;28;20044;-73
2023/01/28 01:08:00;;;;;;;4.40;2.42;;;3.80;99.90;;;;;;5009280;28;20569;-74
2023/01/28 01:10:26;;;;;;;4.22;2.33;;;3.80;99.90;;;;;;5010893;28;20029;-74
2023/01/28 01:12:52;;;;;;;5.70;2.67;;;3.80;99.90;;;;;;5010558;28;20403;-74
2023/01/28 01:15:18;;;;;;;4.40;2.53;;;3.80;99.90;;;;;;5009357;28;20042;-75
2023/01/28 01:17:47;;;;;;;5.22;2.47;;;3.80;99.90;;;;;;5008911;28;20133;-73
2023/01/28 01:20:17;;;;;;;5.72;2.53;;;3.80;99.90;;;;;;5011147;28;20057;-73
2023/01/28 01:22:43;;;;;;;4.90;2.53;;;3.70;99.90;;;;;;5008557;28;20034;-73
2023/01/28 01:25:09;;;;;;;6.53;2.50;;;3.70;99.90;;;;;;5009146;28;20088;-74
2023/01/28 01:27:35;;;;;;;4.22;2.53;;;3.80;99.90;;;;;;5010513;28;20046;-73
2023/01/28 01:30:00;;;;;;;5.07;2.58;;;3.90;99.90;;;;;;5009754;28;20033;-73
2023/01/28 01:32:30;;;;;;;4.90;2.33;;;3.90;99.90;;;;;;5009900;28;20564;-74
2023/01/28 01:34:56;;;;;;;5.13;2.42;;;3.80;99.90;;;;;;5006436;28;20041;-73
2023/01/28 01:37:22;;;;;;;5.10;2.72;;;3.80;99.90;;;;;;5008939;28;20092;-74
2023/01/28 01:39:48;;;;;;;4.03;2.30;;;3.80;99.90;;;;;;5009438;28;20088;-75
2023/01/28 01:42:14;;;;;;;5.57;2.65;;;3.80;99.90;;;;;;5010812;28;20040;-74
2023/01/28 01:45:05;;;;;;;8.20;3.13;;;3.80;99.90;;;;;;5009134;28;21001;-75
2023/01/28 01:47:36;;;;;;;;;;;3.90;99.90;;;;;;5006038;28;20099;-75
2023/01/28 01:50:18;;;;;;;5.47;2.45;;;3.80;99.90;;;;;;5025084;28;19976;-73
2023/01/28 01:52:46;;;;;;;4.78;2.17;;;3.80;99.90;;;;;;5008205;28;20494;-73
2023/01/28 01:55:17;;;;;;;4.22;2.65;;;3.80;99.90;;;;;;5010257;28;20042;-75
2023/01/28 01:57:45;;;;;;;4.05;2.65;;;3.80;99.90;;;;;;5009273;28;20542;-74
2023/01/28 02:00:11;;;;;;;5.05;2.67;;;3.80;99.90;;;;;;5008460;28;20042;-72
2023/01/28 02:02:46;;;;;;;4.43;2.50;;;3.80;99.90;;;;;;5007704;28;20044;-75
2023/01/28 02:05:14;;;;;;;6.00;2.47;;;3.80;99.90;;;;;;5009654;28;20030;-73
2023/01/28 02:07:41;;;;;;;4.88;2.40;;;3.80;99.90;;;;;;5009116;28;20491;-72
2023/01/28 02:10:09;;;;;;;4.55;2.50;;;3.80;99.90;;;;;;4999704;28;20061;-73
2023/01/28 02:12:39;;;;;;;5.18;2.67;;;3.80;99.90;;;;;;5009647;28;20030;-73
2023/01/28 02:15:08;;;;;;;5.72;2.80;;;3.80;99.90;;;;;;5009529;28;20026;-73
2023/01/28 02:17:35;;;;;;;5.72;3.05;;;3.70;99.90;;;;;;5009115;28;20034;-74
2023/01/28 02:20:12;;;;;;;4.90;2.60;;;3.70;99.90;;;;;;5008837;28;20030;-72
2023/01/28 02:22:47;;;;;;;4.90;2.63;;;3.70;99.90;;;;;;5008691;28;20050;-73
2023/01/28 02:25:34;;;;;;;5.03;2.58;;;3.70;99.90;;;;;;5009129;28;20059;-75
2023/01/28 02:28:27;;;;;;;6.82;3.10;;;3.70;99.90;;;;;;5007445;28;20109;-73
2023/01/28 02:31:19;;;;;;;4.88;2.30;;;3.70;99.90;;;;;;5005119;28;20030;-74
2023/01/28 02:33:53;;;;;;;4.25;2.38;;;3.70;99.90;;;;;;5007981;28;20037;-73
2023/01/28 02:36:25;;;;;;;4.22;2.08;;;3.70;99.90;;;;;;5006762;28;20141;-74
2023/01/28 02:38:53;;;;;;;4.95;2.60;;;3.70;99.90;;;;;;5004525;28;20038;-74
2023/01/28 02:41:33;;;;;;;3.95;2.08;;;3.70;99.90;;;;;;5007929;28;20065;-73
2023/01/28 02:44:02;;;;;;;5.00;2.45;;;3.70;99.90;;;;;;5005107;28;20044;-74
2023/01/28 02:49:19;;;;;;;6.75;2.53;;;3.70;99.90;;;;;;5009076;28;20099;-73
2023/01/28 02:52:06;;;;;;;3.80;2.42;;;3.70;99.90;;;;;;5008075;28;20038;-73
2023/01/28 02:54:34;;;;;;;4.10;2.35;;;3.70;99.90;;;;;;5021406;28;20494;-74
2023/01/28 02:57:35;;;;;;;4.68;2.28;;;3.70;99.90;;;;;;5006586;28;20115;-73
2023/01/28 03:00:22;;;;;;;3.85;2.30;;;3.60;99.90;;;;;;5004722;28;20034;-73
2023/01/28 03:03:03;;;;;;;3.50;2.13;;;3.60;99.90;;;;;;5002558;28;20123;-72
2023/01/28 03:05:37;;;;;;;5.22;2.67;;;3.60;99.90;;;;;;5007831;28;20081;-73
2023/01/28 03:09:21;;;;;;;3.65;2.13;;;3.60;99.90;;;;;;5008476;28;20046;-75
2023/01/28 03:38:51;;;;;;;3.72;2.20;;;3.60;99.90;;;;;;5006938;28;20087;-74
2023/01/28 03:41:24;;;;;;;7.68;2.38;;;3.60;99.90;;;;;;5006639;28;20158;-74
2023/01/28 03:43:50;;;;;;;4.18;2.13;;;3.60;99.90;;;;;;4984849;28;20030;-73
2023/01/28 03:46:17;;;;;;;3.20;1.90;;;3.70;99.90;;;;;;4988636;28;20036;-73
2023/01/28 03:48:43;;;;;;;6.20;2.50;;;3.70;99.90;;;;;;4986351;28;20037;-73
2023/01/28 03:51:09;;;;;;;3.53;2.10;;;3.60;99.90;;;;;;4989178;28;20035;-73
2023/01/28 03:53:35;;;;;;;4.72;2.22;;;3.60;99.90;;;;;;4987829;28;20044;-74
2023/01/28 03:56:00;;;;;;;6.72;2.45;;;3.60;99.90;;;;;;4988832;28;20453;-74
2023/01/28 03:58:45;;;;;;;5.18;2.70;;;3.50;99.90;;;;;;4988971;28;20035;-73
2023/01/28 04:01:11;;;;;;;3.95;2.28;;;3.50;99.90;;;;;;4989060;28;20029;-73
2023/01/28 04:03:37;;;;;;;4.15;2.13;;;3.50;99.90;;;;;;4986002;28;20065;-73
2023/01/28 04:06:08;;;;;;;4.45;2.05;;;3.50;99.90;;;;;;4988009;28;20062;-74
2023/01/28 04:08:34;;;;;;;3.40;1.73;;;3.50;99.90;;;;;;4988923;28;20092;-73
2023/01/28 04:11:14;;;;;;;5.68;2.20;;;3.60;99.90;;;;;;4989397;28;20038;-73
2023/01/28 04:13:43;;;;;;;4.63;2.67;;;3.50;99.90;;;;;;4987064;28;20438;-73
2023/01/28 04:16:11;;;;;;;6.30;2.30;;;3.60;99.90;;;;;;4991927;28;20031;-74
2023/01/28 04:18:37;;;;;;;5.28;2.60;;;3.60;99.90;;;;;;4992356;28;20494;-74
2023/01/28 04:21:02;;;;;;;5.00;2.72;;;3.60;99.90;;;;;;4993124;28;20031;-73
2023/01/28 04:23:31;;;;;;;4.72;2.42;;;3.50;99.90;;;;;;4992496;28;20038;-73
2023/01/28 04:25:56;;;;;;;3.75;2.25;;;3.50;99.90;;;;;;4993850;28;20042;-73
2023/01/28 04:28:22;;;;;;;4.85;2.22;;;3.50;99.90;;;;;;4991808;28;20030;-74
2023/01/28 04:30:48;;;;;;;4.47;2.90;;;3.50;99.90;;;;;;4988037;28;20033;-73
2023/01/28 04:33:14;;;;;;;4.38;2.20;;;3.40;99.90;;;;;;4988408;28;20038;-74
2023/01/28 04:35:39;;;;;;;4.47;2.20;;;3.40;99.90;;;;;;4987398;28;20117;-73
2023/01/28 04:38:05;;;;;;;4.15;2.35;;;3.50;99.90;;;;;;4988208;28;20031;-74
2023/01/28 04:40:31;;;;;;;5.15;2.42;;;3.50;99.90;;;;;;4986665;28;20829;-74
2023/01/28 04:42:57;;;;;;;4.25;2.60;;;3.50;99.90;;;;;;4987700;28;20034;-73
2023/01/28 04:45:23;;;;;;;4.22;2.70;;;3.50;99.90;;;;;;4986660;28;20061;-75
2023/01/28 04:47:49;;;;;;;5.38;2.78;;;3.50;99.90;;;;;;4986036;28;20562;-74
2023/01/28 04:50:15;;;;;;;4.78;2.63;;;3.40;99.90;;;;;;4986931;28;20035;-73
2023/01/28 04:52:41;;;;;;;4.35;2.20;;;3.40;99.90;;;;;;4985696;28;20182;-74
2023/01/28 04:55:07;;;;;;;5.07;2.63;;;3.50;99.90;;;;;;4987541;28;20577;-74
2023/01/28 04:57:33;;;;;;;5.50;2.67;;;3.40;99.90;;;;;;4985344;28;20050;-76
2023/01/28 04:59:59;;;;;;;5.07;2.85;;;3.40;99.90;;;;;;4981750;28;20038;-73
2023/01/28 05:02:24;;;;;;;6.32;2.47;;;3.40;99.90;;;;;;4984958;28;20517;-73
2023/01/28 05:04:50;;;;;;;4.70;2.45;;;3.40;99.90;;;;;;4986172;28;20114;-74
2023/01/28 05:07:15;;;;;;;4.15;2.50;;;3.40;99.90;;;;;;4991145;28;20041;-74
2023/01/28 05:09:41;;;;;;;5.28;2.40;;;3.40;99.90;;;;;;4990402;28;20198;-74
2023/01/28 05:12:06;;;;;;;5.95;3.15;;;3.40;99.90;;;;;;4990038;28;20441;-74
2023/01/28 05:14:32;;;;;;;5.85;3.00;;;3.40;99.90;;;;;;4989489;28;20053;-73
2023/01/28 05:16:58;;;;;;;4.50;2.95;;;3.40;99.90;;;;;;4989595;28;20042;-74
2023/01/28 05:19:23;;;;;;;4.05;2.42;;;3.50;99.90;;;;;;4991059;28;20030;-74
2023/01/28 05:21:49;;;;;;;4.47;2.53;;;3.40;99.90;;;;;;4990768;28;20070;-74
2023/01/28 05:24:14;;;;;;;5.95;3.03;;;3.40;99.90;;;;;;4990412;28;20045;-74
2023/01/28 05:26:40;;;;;;;6.18;2.40;;;3.40;99.90;;;;;;4988862;28;20522;-75
2023/01/28 05:29:06;;;;;;;5.72;3.00;;;3.40;99.90;;;;;;4991297;28;20482;-73
2023/01/28 05:31:31;;;;;;;4.53;2.00;;;3.40;99.90;;;;;;4990494;28;20046;-74
2023/01/28 05:33:57;;;;;;;3.80;2.33;;;3.30;99.90;;;;;;4988954;28;20042;-75
2023/01/28 05:36:23;;;;;;;4.65;2.72;;;3.30;99.90;;;;;;4990172;28;20483;-75
2023/01/28 05:38:48;;;;;;;5.35;2.70;;;3.30;99.90;;;;;;4989602;28;20038;-74
2023/01/28 05:41:14;;;;;;;5.65;2.83;;;3.30;99.90;;;;;;4990647;28;20031;-73
2023/01/28 05:43:39;;;;;;;4.60;2.20;;;3.30;99.90;;;;;;4989399;28;20026;-73
2023/01/28 05:46:05;;;;;;;6.13;2.83;;;3.30;99.90;;;;;;4991106;28;20031;-73
2023/01/28 05:48:31;;;;;;;4.50;2.40;;;3.30;99.90;;;;;;4990091;28;20058;-74
2023/01/28 05:50:56;;;;;;;5.45;2.70;;;3.30;99.90;;;;;;4988832;28;20101;-73
2023/01/28 05:53:22;;;;;;;5.25;2.60;;;3.20;99.90;;;;;;4988397;28;20037;-74
2023/01/28 05:55:49;;;;;;;7.45;1.98;;;3.20;99.90;;;;;;4990278;28;20023;-74
2023/01/28 05:58:15;;;;;;;5.20;2.13;;;3.20;99.90;;;;;;4989917;28;20031;-74
2023/01/28 06:00:40;;;;;;;5.65;2.78;;;3.30;99.90;;;;;;4988270;28;20045;-73
2023/01/28 06:03:06;;;;;;;3.60;2.30;;;3.30;99.90;;;;;;4990533;28;20027;-74
2023/01/28 06:05:31;;;;;;;5.20;2.70;;;3.30;99.90;;;;;;4989766;28;20054;-77
2023/01/28 06:07:57;;;;;;;3.65;1.95;;;3.30;99.90;;;;;;4990184;28;20426;-73
2023/01/28 06:10:22;;;;;;;5.97;3.15;;;3.30;99.90;;;;;;4989866;28;20077;-73
2023/01/28 06:12:48;;;;;;;4.35;1.98;;;3.20;99.90;;;;;;4988336;28;20049;-73
2023/01/28 06:15:14;;;;;;;5.95;2.65;;;3.20;99.90;;;;;;4989964;28;20333;-73
2023/01/28 06:17:39;;;;;;;5.38;2.60;;;3.20;99.90;;;;;;4989179;28;20073;-73
2023/01/28 06:20:07;;;;;;;5.90;2.65;;;3.30;99.90;;;;;;4989537;28;20375;-73
2023/01/28 06:22:33;;;;;;;4.80;2.35;;;3.30;99.90;;;;;;4988429;28;20089;-73
2023/01/28 06:24:58;;;;;;;4.47;2.67;;;3.30;99.90;;;;;;4989061;28;20054;-73
2023/01/28 06:27:24;;;;;;;5.32;2.20;;;3.30;99.90;;;;;;4989782;28;20036;-74
2023/01/28 06:29:49;;;;;;;4.50;2.22;;;3.30;99.90;;;;;;4989605;28;20046;-73
2023/01/28 06:32:15;;;;;;;4.97;2.45;;;3.30;99.90;;;;;;4990018;28;20030;-73
2023/01/28 06:34:40;;;;;;;4.43;2.45;;;3.20;99.90;;;;;;4986823;28;20046;-75
2023/01/28 06:37:06;;;;;;;5.22;2.40;;;3.20;99.90;;;;;;4989778;28;20057;-73
2023/01/28 06:39:32;;;;;;;7.43;2.78;;;3.20;99.90;;;;;;4989015;28;20090;-73
2023/01/28 06:41:58;;;;;;;6.63;3.17;;;3.20;99.90;;;;;;4989521;28;20406;-73
2023/01/28 06:44:24;;;;;;;5.22;2.78;;;3.20;99.90;;;;;;4986647;28;20581;-72
2023/01/28 06:46:49;;;;;;;5.45;2.47;;;3.20;99.90;;;;;;4988962;28;20038;-74
2023/01/28 06:49:15;;;;;;;4.45;2.55;;;3.20;99.90;;;;;;4989790;28;20031;-74
2023/01/28 06:51:41;;;;;;;5.25;2.40;;;3.10;99.90;;;;;;4987311;28;20034;-74
2023/01/28 06:54:06;;;;;;;5.30;2.67;;;3.20;99.90;;;;;;4989060;28;20070;-72
2023/01/28 06:56:32;;;;;;;4.75;2.47;;;3.20;99.90;;;;;;4987586;28;20046;-72
2023/01/28 06:58:58;;;;;;;5.25;2.65;;;3.20;99.90;;;;;;4982825;28;20041;-73
2023/01/28 07:01:23;;;;;;;5.45;2.50;;;3.20;99.90;;;;;;4984340;28;20038;-73
2023/01/28 07:03:49;;;;;;;5.53;2.90;;;3.20;99.90;;;;;;4988573;28;20461;-74
2023/01/28 07:06:15;;;;;;;5.75;2.90;;;3.10;99.90;;;;;;4988155;28;20096;-74
2023/01/28 07:08:40;;;;;;;5.00;2.53;;;3.10;99.90;;;;;;4986845;28;20104;-74
2023/01/28 07:11:06;;;;;;;5.30;2.83;;;3.20;99.90;;;;;;4987653;28;20042;-74
2023/01/28 07:13:32;;;;;;;5.10;2.65;;;3.20;99.90;;;;;;4988562;28;20514;-74
2023/01/28 07:15:58;;;;;;;4.90;2.42;;;3.20;99.90;;;;;;4987433;28;20133;-72
2023/01/28 07:18:24;;;;;;;4.78;2.47;;;3.10;99.90;;;;;;4987102;28;20109;-73
2023/01/28 07:20:49;;;;;;;4.07;2.30;;;3.20;99.90;;;;;;4986311;28;20034;-74
2023/01/28 07:23:15;;;;;;;6.28;2.38;;;3.30;99.90;;;;;;4988501;28;20038;-73
2023/01/28 07:25:40;;;;;;;6.68;3.38;;;3.30;99.90;;;;;;4985968;28;20774;-73
2023/01/28 07:28:06;;;;;;;5.90;3.00;;;3.20;99.90;;;;;;4986568;28;20039;-73
2023/01/28 07:30:32;;;;;;;4.97;2.90;;;3.20;99.90;;;;;;4987648;28;20506;-73
2023/01/28 07:32:58;;;;;;;6.60;3.47;;;3.20;99.90;;;;;;5007223;28;20027;-73
2023/01/28 07:35:25;;;;;;;4.38;2.53;;;3.20;99.90;;;;;;5007505;28;20061;-73
2023/01/28 07:37:54;;;;;;;6.32;3.15;;;3.20;99.90;;;;;;5007264;28;20030;-73
2023/01/28 07:40:20;;;;;;;6.72;2.97;;;3.30;99.90;;;;;;5006555;28;20033;-73
2023/01/28 07:42:46;;;;;;;5.35;2.80;;;3.30;99.90;;;;;;5003298;28;20038;-73
2023/01/28 07:45:12;;;;;;;5.35;3.17;;;3.20;99.90;;;;;;5006766;28;20449;-76
2023/01/28 07:47:37;;;;;;;5.80;2.85;;;3.20;99.90;;;;;;5006537;28;20046;-74
2023/01/28 07:50:03;;;;;;;5.35;2.97;;;3.20;99.90;;;;;;5007966;28;20084;-73
2023/01/28 07:52:29;;;;;;;5.45;3.30;;;3.20;99.90;;;;;;5007641;28;20150;-72
2023/01/28 07:54:54;;;;;;;5.38;2.70;;;3.20;99.90;;;;;;5004402;28;20045;-72
2023/01/28 07:57:22;;;;;;;6.30;2.78;;;3.20;99.90;;;;;;5021139;28;20026;-73
2023/01/28 07:59:49;;;;;;;5.82;3.10;;;3.20;99.90;;;;;;5015706;28;20029;-75
2023/01/28 08:02:16;;;;;;;5.10;2.75;;;3.20;99.90;;;;;;5011384;28;20072;-72
2023/01/28 08:04:41;;;;;;;5.40;2.47;;;3.20;99.90;;;;;;5019393;28;20034;-72
2023/01/28 08:07:07;;;;;;;3.97;2.17;;;3.10;99.90;;;;;;5012738;28;20091;-73
2023/01/28 08:09:33;;;;;;;5.43;2.58;;;3.10;99.90;;;;;;5003699;28;20041;-74
2023/01/28 08:12:00;;;;;;;4.10;2.30;;;3.10;99.90;;;;;;5009020;28;20048;-73
2023/01/28 08:14:26;;;;;;;4.30;1.77;;;3.10;99.90;;;;;;5026925;28;20034;-73
2023/01/28 08:16:52;;;;;;;4.00;2.10;;;3.20;99.90;;;;;;5019161;28;20044;-74
2023/01/28 08:19:20;;;;;;;6.82;2.28;;;3.20;99.90;;;;;;5019870;28;20041;-73
2023/01/28 08:21:46;;;;;;;3.22;1.77;;;3.20;99.90;;;;;;5023036;28;20030;-73
2023/01/28 08:24:12;;;;;;;5.00;2.20;;;3.20;99.90;;;;;;5016932;28;20089;-74
2023/01/28 08:26:37;;;;;;;4.68;2.38;;;3.20;99.90;;;;;;5017216;28;20072;-74
2023/01/28 08:29:04;;;;;;;5.63;2.83;;;3.20;99.90;;;;;;5024543;28;20034;-73
2023/01/28 08:31:30;;;;;;;4.20;2.20;;;3.20;99.90;;;;;;5021714;28;20049;-73
2023/01/28 08:33:55;;;;;;;5.03;2.03;;;3.20;99.90;;;;;;5021191;28;20037;-73
2023/01/28 08:36:21;;;;;;;2.13;1.30;;;3.30;99.90;;;;;;5020193;28;20034;-73
2023/01/28 08:38:52;;;;;;;3.88;1.58;;;3.30;99.90;;;;;;5022964;28;20053;-75
2023/01/28 08:41:20;;;;;;;1.83;1.00;;;3.30;99.90;;;;;;5026162;28;20061;-74
2023/01/28 08:43:46;;;;;;;6.13;1.70;;;3.40;99.90;;;;;;5025166;28;20030;-74
2023/01/28 08:46:12;;;;;;;3.40;1.70;;;3.40;99.90;;;;;;5028755;28;20049;-73
2023/01/28 08:48:37;;;;;;;4.28;1.90;;;3.40;99.90;;;;;;5027056;28;20045;-73
2023/01/28 08:51:03;;;;;;;3.60;1.77;;;3.40;99.90;;;;;;5026602;28;20444;-73
2023/01/28 08:53:29;;;;;;;6.30;1.80;;;3.40;99.90;;;;;;5022170;28;20112;-73
2023/01/28 08:55:54;;;;;;;14.57;2.65;;;3.50;99.90;;;;;;5028100;28;20434;-73
2023/01/28 08:58:20;;;;;;;3.80;1.95;;;3.60;99.90;;;;;;5026486;28;20072;-74
2023/01/28 09:00:47;;;;;;;4.22;2.00;;;3.60;99.90;;;;;;5022776;28;20394;-72
2023/01/28 09:03:12;;;;;;;4.53;2.00;;;3.60;99.90;;;;;;5025171;28;20030;-73
2023/01/28 09:05:38;;;;;;;2.85;1.63;;;3.70;99.90;;;;;;5027071;28;20052;-73
2023/01/28 09:08:06;;;;;;;2.25;1.25;;;3.70;99.90;;;;;;5024999;28;20696;-72
2023/01/28 09:10:32;;;;;;;4.40;1.58;;;3.60;99.90;;;;;;5023062;28;20502;-73
2023/01/28 09:12:58;;;;;;;3.58;1.52;;;3.50;99.90;;;;;;5019876;28;20064;-72
2023/01/28 09:15:23;;;;;;;3.60;1.58;;;3.50;99.90;;;;;;5020334;28;20443;-72
2023/01/28 09:17:49;;;;;;;3.60;1.80;;;3.60;99.90;;;;;;5021567;28;20403;-71
2023/01/28 09:20:15;;;;;;;3.05;1.25;;;3.60;99.90;;;;;;5022168;28;20117;-72
2023/01/28 09:22:41;;;;;;;3.10;1.52;;;3.60;99.90;;;;;;5020638;28;20042;-73
2023/01/28 09:25:07;;;;;;;2.92;1.63;;;3.60;99.90;;;;;;5020340;28;20038;-72
2023/01/28 09:27:32;;;;;;;2.15;1.35;;;3.70;99.90;;;;;;5033811;28;20564;-72
2023/01/28 09:29:58;;;;;;;4.65;1.50;;;3.70;99.90;;;;;;5013781;28;20034;-72
2023/01/28 09:32:23;;;;;;;2.70;1.30;;;3.80;99.90;;;;;;5013804;28;20033;-72
2023/01/28 09:34:49;;;;;;;2.00;1.08;;;3.90;99.90;;;;;;5011431;28;20041;-72
2023/01/28 09:37:17;;;;;;;2.15;1.40;;;3.90;99.90;;;;;;5013646;28;20037;-70
2023/01/28 09:39:42;;;;;;;3.58;1.48;;;3.90;99.90;;;;;;5012297;28;20053;-69
2023/01/28 09:42:30;;;;;;;2.08;1.08;;;3.90;99.90;;;;;;5013084;28;20025;-70
2023/01/28 09:45:10;;;;;;;2.10;0.98;;;4.00;99.90;;;;;;5006978;28;20037;-69
2023/01/28 09:47:40;;;;;;;4.47;1.02;;;4.10;99.90;;;;;;5009540;28;20033;-71
2023/01/28 09:50:17;;;;;;;2.88;0.95;;;4.10;99.90;;;;;;5012448;28;20092;-70
2023/01/28 09:52:44;;;;;;;1.77;0.70;;;4.20;99.90;;;;;;5010561;28;20076;-70
2023/01/28 09:55:43;;;;;;;2.08;0.75;;;4.30;99.90;;;;;;5011486;28;20101;-70
2023/01/28 09:58:14;;;;;;;3.38;1.00;;;4.30;99.90;;;;;;5010161;28;20038;-72
2023/01/28 10:00:40;;;;;;;2.75;1.05;;;4.30;99.90;;;;;;5012506;28;20494;-71
2023/01/28 10:03:42;;;;;;;4.38;0.95;;;4.20;99.90;;;;;;5012964;28;20038;-72
2023/01/28 10:06:31;;;;;;;1.05;0.55;;;4.30;99.90;;;;;;5009608;28;20042;-71
2023/01/28 10:09:06;;;;;;;4.30;0.80;;;4.30;99.90;;;;;;5011894;28;20038;-71
2023/01/28 10:11:55;;;;;;;2.08;0.70;;;4.30;99.90;;;;;;5013432;28;20041;-71
2023/01/28 10:14:53;;;;;;;1.63;0.75;;;4.30;99.90;;;;;;5016542;28;20033;-70
2023/01/28 10:17:37;;;;;;;1.60;0.75;;;4.30;99.90;;;;;;5004631;28;20045;-71
2023/01/28 10:20:17;;;;;;;1.73;1.02;;;4.30;99.90;;;;;;5012436;28;20025;-71
2023/01/28 10:22:50;;;;;;;2.33;0.82;;;4.30;99.90;;;;;;5013269;28;20045;-69
2023/01/28 10:25:21;;;;;;;2.28;0.70;;;4.30;99.90;;;;;;5011445;28;20077;-72
2023/01/28 10:27:49;;;;;;;1.20;0.70;;;4.40;99.90;;;;;;5009950;28;20038;-71
2023/01/28 10:30:18;;;;;;;2.55;0.73;;;4.40;99.90;;;;;;5012543;28;20766;-71
2023/01/28 10:32:55;;;;;;;0.93;0.52;;;4.50;99.90;;;;;;5012810;28;20073;-69
2023/01/28 10:35:22;;;;;;;1.40;0.70;;;4.50;99.90;;;;;;5011586;28;20113;-71
2023/01/28 10:37:49;;;;;;;2.28;0.60;;;4.50;99.90;;;;;;5006892;28;20038;-71
2023/01/28 10:40:17;;;;;;;8.27;2.42;;;4.50;99.90;;;;;;5009997;28;20040;-70
2023/01/28 10:42:44;;;;;;;0.80;0.65;;;4.60;99.90;;;;;;5008046;28;20042;-68
2023/01/28 10:45:27;;;;;;;2.05;0.80;;;4.60;99.90;;;;;;5010023;28;20038;-71
2023/01/28 10:48:12;;;;;;;2.72;0.75;;;4.70;99.90;;;;;;5003760;28;20045;-71
2023/01/28 10:50:48;;;;;;;1.83;1.00;;;4.60;99.90;;;;;;5007295;28;20069;-71
2023/01/28 10:53:13;;;;;;;1.25;0.77;;;4.70;99.90;;;;;;5009217;28;20026;-71
2023/01/28 10:56:09;;;;;;;2.97;0.90;;;4.80;99.90;;;;;;5006489;28;20079;-71
2023/01/28 10:59:05;;;;;;;2.25;0.80;;;4.80;99.90;;;;;;4984405;28;20041;-71
2023/01/28 11:01:41;;;;;;;2.03;0.77;;;4.80;99.90;;;;;;4986306;28;20034;-73
2023/01/28 11:04:16;;;;;;;2.10;0.80;;;4.80;99.90;;;;;;4986528;28;20042;-71
2023/01/28 11:06:50;;;;;;;2.55;0.98;;;4.80;99.90;;;;;;4987801;28;20030;-72
2023/01/28 11:09:27;;;;;;;1.83;0.77;;;4.80;99.90;;;;;;4988169;28;20030;-71
2023/01/28 11:11:53;;;;;;;1.90;0.82;;;4.80;99.90;;;;;;4983267;28;20034;-72
2023/01/28 11:14:20;;;;;;;2.03;0.75;;;4.80;99.90;;;;;;4986712;28;20509;-72
2023/01/28 11:16:47;;;;;;;2.53;0.55;;;4.90;99.90;;;;;;4976368;28;20126;-72
2023/01/28 11:19:13;;;;;;;4.38;1.23;;;5.10;99.90;;;;;;4978411;28;20031;-72
2023/01/28 11:21:38;;;;;;;1.38;0.63;;;5.20;99.90;;;;;;4973649;28;20097;-72
2023/01/28 11:24:27;;;;;;;3.78;1.08;;;5.30;99.90;;;;;;4972752;28;20043;-72
2023/01/28 11:26:55;;;;;;;8.95;1.67;;;5.30;99.90;;;;;;4975994;28;20034;-71
2023/01/28 11:29:26;;;;;;;3.65;1.88;;;5.30;99.90;;;;;;4973535;28;20440;-71
2023/01/28 11:31:51;;;;;;;3.03;0.82;;;5.30;99.90;;;;;;4972583;28;20101;-72
2023/01/28 11:34:19;;;;;;;1.75;1.10;;;5.30;99.90;;;;;;4979645;28;20046;-72
2023/01/28 11:36:54;;;;;;;1.98;0.90;;;5.30;99.90;;;;;;4976011;28;20037;-71
2023/01/28 11:39:27;;;;;;;1.88;0.85;;;5.50;99.90;;;;;;4973996;28;20038;-71
2023/01/28 11:41:53;;;;;;;2.95;1.35;;;5.60;99.90;;;;;;4974601;28;20508;-71
2023/01/28 11:44:23;;;;;;;3.13;0.98;;;5.50;99.90;;;;;;4976677;28;20069;-72
2023/01/28 11:47:00;;;;;;;5.10;0.40;;;5.40;99.90;;;;;;4973930;28;20911;-71
2023/01/28 11:49:47;;;;;;;3.60;1.20;;;5.30;99.90;;;;;;4975706;28;20027;-70
2023/01/28 11:52:31;;;;;;;1.55;0.80;;;5.30;99.90;;;;;;4976030;28;20133;-71
2023/01/28 11:55:35;;;;;;;3.95;1.08;;;5.30;99.90;;;;;;4980013;28;20034;-72
2023/01/28 11:58:32;;;;;;;2.78;0.90;;;5.20;99.90;;;;;;4976034;28;20023;-71
2023/01/28 12:01:00;;;;;;;3.33;1.05;;;5.20;99.90;;;;;;4973427;28;20038;-73
2023/01/28 12:03:32;;;;;;;2.97;0.80;;;5.20;99.90;;;;;;4972444;28;20105;-70
2023/01/28 12:06:25;;;;;;;1.65;0.85;;;5.20;99.90;;;;;;4980107;28;20079;-72
2023/01/28 12:09:12;;;;;;;2.08;0.90;;;5.20;99.90;;;;;;4984692;28;20690;-71
2023/01/28 12:12:16;;;;;;;1.80;0.60;;;5.10;99.90;;;;;;5002116;28;20473;-71
2023/01/28 12:14:50;;;;;;;5.28;0.90;;;5.20;99.90;;;;;;4994361;28;20033;-72
2023/01/28 12:17:25;;;;;;;2.03;0.75;;;5.20;99.90;;;;;;5008993;28;20426;-72
2023/01/28 12:20:18;;;;;;;1.98;0.68;;;5.20;99.90;;;;;;5013211;28;20494;-72
2023/01/28 12:23:10;;;;;;;2.30;1.20;;;5.10;99.90;;;;;;5009306;28;20038;-73
2023/01/28 12:26:07;;;;;;;2.88;0.80;;;5.10;99.90;;;;;;5014514;28;20043;-72
2023/01/28 12:28:43;;;;;;;3.78;0.70;;;5.20;99.90;;;;;;4999518;28;20418;-71
2023/01/28 12:31:27;;;;;;;3.25;0.90;;;5.30;99.90;;;;;;5007311;28;20038;-72
2023/01/28 12:34:22;;;;;;;6.68;1.02;;;5.50;99.90;;;;;;5016773;28;20046;-73
2023/01/28 12:36:50;;;;;;;4.35;1.13;;;5.50;99.90;;;;;;5004165;28;20042;-73
2023/01/28 12:39:40;;;;;;;1.15;0.63;;;5.50;99.90;;;;;;5005175;28;20046;-72
2023/01/28 12:42:19;;;;;;;4.88;0.88;;;5.50;99.90;;;;;;5012392;28;20040;-73
2023/01/28 12:45:03;;;;;;;2.13;0.80;;;5.40;99.90;;;;;;5000158;28;20041;-75
2023/01/28 12:47:38;;;;;;;5.07;1.02;;;5.30;99.90;;;;;;5013858;28;20533;-73
2023/01/28 12:50:21;;;;;;;2.30;0.90;;;5.20;99.90;;;;;;4996318;28;20040;-73
2023/01/28 12:52:56;;;;;;;1.38;0.68;;;5.30;99.90;;;;;;5000813;28;20797;-73
2023/01/28 12:55:39;;;;;;;3.85;0.47;;;5.10;99.90;;;;;;5005498;28;20479;-74
2023/01/28 12:58:11;;;;;;;2.72;0.47;;;5.10;99.90;;;;;;5021222;28;20055;-73
2023/01/28 13:00:42;;;;;;;4.28;0.60;;;5.10;99.90;;;;;;5008338;28;20417;-73
2023/01/28 13:03:23;;;;;;;3.13;1.23;;;5.10;99.90;;;;;;5011061;28;20217;-72
2023/01/28 13:05:56;;;;;;;3.70;1.05;;;5.10;99.90;;;;;;5003865;28;20041;-71
2023/01/28 13:08:27;;;;;;;1.95;0.70;;;5.10;99.90;;;;;;5014121;28;20108;-72
2023/01/28 13:10:55;;;;;;;1.58;0.65;;;5.20;99.90;;;;;;5007616;28;20088;-72
2023/01/28 13:13:21;;;;;;;1.83;0.55;;;5.20;99.90;;;;;;5011256;28;20030;-74
2023/01/28 13:15:47;;;;;;;1.60;0.85;;;5.30;99.90;;;;;;5011671;28;20084;-75
2023/01/28 13:18:38;;;;;;;1.35;0.60;;;5.40;99.90;;;;;;5009404;28;20092;-71
2023/01/28 13:21:13;;;;;;;1.42;0.65;;;5.40;99.90;;;;;;5007381;28;20479;-74
2023/01/28 13:23:47;;;;;;;2.22;1.00;;;5.40;99.90;;;;;;5009148;28;20030;-73
2023/01/28 13:26:18;;;;;;;2.63;0.90;;;5.40;99.90;;;;;;5008963;28;20038;-73
2023/01/28 13:28:51;;;;;;;1.85;0.90;;;5.40;99.90;;;;;;5021038;28;20033;-73
2023/01/28 13:31:22;;;;;;;2.35;0.60;;;5.40;99.90;;;;;;5007413;28;20069;-72
2023/01/28 13:33:54;;;;;;;1.38;0.63;;;5.40;99.90;;;;;;5011905;28;20034;-72
2023/01/28 13:36:32;;;;;;;5.40;0.85;;;5.30;99.90;;;;;;5009743;28;20087;-72
2023/01/28 13:39:22;;;;;;;1.40;0.60;;;5.30;99.90;;;;;;5006298;28;20134;-73
2023/01/28 13:41:51;;;;;;;1.55;0.50;;;5.40;99.90;;;;;;5006135;28;20192;-74
2023/01/28 13:44:27;;;;;;;2.28;0.40;;;5.40;99.90;;;;;;5010179;28;20117;-73
2023/01/28 13:47:30;;;;;;;2.47;1.02;;;5.40;99.90;;;;;;5008154;28;20056;-73